Time;durP1;ratioP1;P1;durP2;ratioP2;P2;SDS_P1;SDS_P2;PMS_P1;PMS_P2;Temp;Humidity;BMP_temperature;BMP_pressure;BME280_temperature;BME280_humidity;BME280_pressure;Samples;Min_cycle;Max_cycle;Signal;HPM_P1;HPM_P2
2022/06/16 00:00:07;;;;;;;5.90;3.63;;;;;;;20.03;60.02;99430.06;342498;28;1799;-67
2022/06/16 00:00:19;;;;;;;5.05;3.83;;;;;;;19.88;60.42;99434.69;342237;28;1890;-67
2022/06/16 00:00:34;;;;;;;4.80;4.25;;;;;;;19.84;61.26;99439.38;343267;28;1475;-66
2022/06/16 00:00:47;;;;;;;5.57;4.20;;;;;;;19.86;60.86;99436.59;342440;28;920;-66
2022/06/16 00:00:59;;;;;;;6.55;4.00;;;;;;;19.86;60.58;99437.47;342563;28;1268;-66
2022/06/16 00:01:11;;;;;;;6.15;3.85;;;;;;;19.89;60.58;99434.56;342831;28;1283;-66
2022/06/16 00:01:23;;;;;;;5.57;3.80;;;;;;;19.90;60.69;99433.63;343874;28;1228;-66
2022/06/16 00:01:35;;;;;;;5.10;3.80;;;;;;;19.93;60.63;99430.75;343162;28;1773;-66
2022/06/16 00:01:48;;;;;;;5.78;3.80;;;;;;;19.95;60.28;99433.28;343871;28;1864;-66
2022/06/16 00:02:00;;;;;;;6.55;3.67;;;;;;;19.96;60.27;99432.34;343562;28;1647;-66
2022/06/16 00:02:14;;;;;;;5.85;3.78;;;;;;;19.87;60.44;99428.56;343646;28;2139;-66
2022/06/16 00:02:27;;;;;;;4.85;3.97;;;;;;;19.91;60.46;99429.19;342983;28;1843;-66
2022/06/16 00:02:45;;;;;;;4.57;4.10;;;;;;;19.88;60.50;99430.28;343568;28;1612;-66
2022/06/16 00:02:58;;;;;;;5.38;4.15;;;;;;;19.87;60.81;99433.84;342350;28;1679;-66
2022/06/16 00:03:10;;;;;;;5.43;4.13;;;;;;;19.88;60.75;99435.53;343602;28;1547;-66
2022/06/16 00:03:23;;;;;;;5.32;4.10;;;;;;;19.86;60.68;99429.53;341750;28;2069;-67
2022/06/16 00:03:36;;;;;;;5.07;4.28;;;;;;;19.87;60.68;99433.84;342870;28;1905;-67
2022/06/16 00:03:48;;;;;;;4.82;4.20;;;;;;;19.87;60.77;99433.00;343480;28;1560;-67
2022/06/16 00:04:00;;;;;;;4.75;4.15;;;;;;;19.87;60.58;99430.38;342724;28;996;-67
2022/06/16 00:04:12;;;;;;;5.15;3.90;;;;;;;19.86;60.61;99426.03;342440;28;1173;-66
2022/06/16 00:04:25;;;;;;;5.25;3.83;;;;;;;19.87;60.62;99433.00;343324;28;1860;-66
2022/06/16 00:04:37;;;;;;;5.65;3.78;;;;;;;19.87;60.54;99427.75;342568;28;1039;-66
2022/06/16 00:04:49;;;;;;;4.45;3.67;;;;;;;19.85;60.65;99433.13;342444;28;1013;-66
2022/06/16 00:05:01;;;;;;;4.63;3.60;;;;;;;19.71;61.70;99435.94;342432;28;1059;-66
2022/06/16 00:05:16;;;;;;;4.15;3.70;;;;;;;19.44;62.18;99423.81;343462;28;1182;-66
2022/06/16 00:05:31;;;;;;;4.93;4.05;;;;;;;19.35;62.54;99432.38;342314;28;1746;-66
2022/06/16 00:05:44;;;;;;;6.07;4.10;;;;;;;19.35;62.41;99427.09;343269;28;1308;-66
2022/06/16 00:05:56;;;;;;;6.10;4.07;;;;;;;19.43;62.36;99432.66;342675;28;1055;-66
2022/06/16 00:06:08;;;;;;;4.43;3.90;;;;;;;19.48;62.18;99433.19;342363;28;1123;-66
2022/06/16 00:06:21;;;;;;;5.05;3.83;;;;;;;19.55;61.81;99434.41;342481;28;1684;-66
2022/06/16 00:06:33;;;;;;;5.65;3.97;;;;;;;19.60;61.88;99420.03;342673;28;1663;-67
2022/06/16 00:06:46;;;;;;;5.22;4.10;;;;;;;19.62;61.82;99426.03;342699;28;1564;-67
2022/06/16 00:06:59;;;;;;;7.03;4.22;;;;;;;19.64;61.36;99427.63;342592;28;1090;-67
2022/06/16 00:07:15;;;;;;;6.80;4.10;;;;;;;19.65;60.95;99423.19;342505;28;1875;-66
2022/06/16 00:07:27;;;;;;;4.38;3.90;;;;;;;19.61;60.32;99425.19;342303;28;1907;-66
2022/06/16 00:07:40;;;;;;;4.40;4.00;;;;;;;19.61;60.45;99427.84;342940;28;2258;-67
2022/06/16 00:07:52;;;;;;;4.68;4.10;;;;;;;19.59;60.57;99427.09;343637;28;1896;-67
2022/06/16 00:08:06;;;;;;;6.47;4.13;;;;;;;19.56;60.73;99425.56;343817;28;1190;-67
2022/06/16 00:08:19;;;;;;;6.72;4.22;;;;;;;19.51;61.03;99426.84;342381;28;1812;-66
2022/06/16 00:08:31;;;;;;;6.50;4.38;;;;;;;19.47;61.37;99425.38;341829;28;1686;-66
2022/06/16 00:08:43;;;;;;;6.18;4.43;;;;;;;19.43;61.37;99423.91;343482;28;1631;-66
2022/06/16 00:08:55;;;;;;;5.32;4.38;;;;;;;19.39;62.30;99427.72;342823;28;1066;-66
2022/06/16 00:09:07;;;;;;;5.50;4.28;;;;;;;19.35;63.36;99427.09;342225;28;1080;-66
2022/06/16 00:09:19;;;;;;;5.75;4.30;;;;;;;19.35;63.33;99421.84;343345;28;1782;-66
2022/06/16 00:09:31;;;;;;;7.05;4.38;;;;;;;19.36;63.25;99428.81;343713;28;1283;-66
2022/06/16 00:09:43;;;;;;;8.93;4.30;;;;;;;19.38;62.92;99424.25;343835;28;1059;-66
2022/06/16 00:09:58;;;;;;;9.88;4.43;;;;;;;19.41;63.00;99429.28;343388;28;1694;-67
2022/06/16 00:10:10;;;;;;;5.72;4.20;;;;;;;19.44;62.65;99429.09;343530;28;1261;-67
2022/06/16 00:10:24;;;;;;;4.47;4.07;;;;;;;19.45;62.59;99428.13;341804;28;1806;-66
2022/06/16 00:10:37;;;;;;;4.97;4.15;;;;;;;19.49;62.40;99429.56;342398;28;1805;-67
2022/06/16 00:11:20;;;;;;;5.07;4.18;;;;;;;19.55;62.60;99429.13;344143;28;1869;-67
2022/06/16 00:11:32;;;;;;;5.68;4.32;;;;;;;19.55;62.31;99423.03;343350;28;1935;-67
2022/06/16 00:11:44;;;;;;;5.20;4.20;;;;;;;19.58;62.22;99424.56;343984;28;1609;-67
2022/06/16 00:11:56;;;;;;;4.90;4.10;;;;;;;19.60;62.22;99425.31;343480;28;1830;-67
2022/06/16 00:12:08;;;;;;;5.60;4.00;;;;;;;19.63;62.02;99425.09;343481;28;1233;-67
2022/06/16 00:12:21;;;;;;;5.35;4.00;;;;;;;19.64;62.17;99426.75;343151;28;1741;-67
2022/06/16 00:12:33;;;;;;;6.20;3.97;;;;;;;19.67;62.25;99427.38;343418;28;1362;-67
2022/06/16 00:12:46;;;;;;;5.10;3.95;;;;;;;19.68;62.19;99423.81;344462;28;1243;-67
2022/06/16 00:13:00;;;;;;;4.55;3.80;;;;;;;19.70;62.39;99431.63;343640;28;1740;-66
2022/06/16 00:13:12;;;;;;;4.25;3.78;;;;;;;19.69;62.77;99425.47;342287;28;1811;-66
2022/06/16 00:13:25;;;;;;;4.82;3.90;;;;;;;19.73;62.97;99426.13;343079;28;2201;-66
2022/06/16 00:13:39;;;;;;;5.20;4.03;;;;;;;19.75;62.45;99429.50;342499;28;1722;-66
2022/06/16 00:13:51;;;;;;;4.60;3.83;;;;;;;19.75;62.84;99429.50;342348;28;2266;-66
2022/06/16 00:14:04;;;;;;;4.20;3.80;;;;;;;19.50;63.02;99431.28;343174;28;1758;-69
2022/06/16 00:14:16;;;;;;;4.70;3.83;;;;;;;19.51;63.27;99426.84;342835;28;1672;-67
2022/06/16 00:14:29;;;;;;;4.72;4.00;;;;;;;19.33;63.28;99429.00;341661;28;1910;-68
2022/06/16 00:14:41;;;;;;;4.70;4.18;;;;;;;19.31;63.16;99428.28;342921;28;1835;-69
2022/06/16 00:14:53;;;;;;;4.65;4.10;;;;;;;19.37;62.96;99425.19;342726;28;1805;-69
2022/06/16 00:15:10;;;;;;;5.10;4.05;;;;;;;19.43;62.88;99427.38;342420;28;1106;-69
2022/06/16 00:15:24;;;;;;;5.15;4.00;;;;;;;19.50;62.76;99427.81;342122;28;1736;-69
2022/06/16 00:15:36;;;;;;;6.03;4.00;;;;;;;19.53;62.62;99428.41;341547;28;2050;-69
2022/06/16 00:15:48;;;;;;;6.68;4.07;;;;;;;19.54;63.05;99430.09;343516;28;1494;-69
2022/06/16 00:16:00;;;;;;;6.93;4.20;;;;;;;19.55;63.01;99434.41;342518;28;1290;-69
2022/06/16 00:16:12;;;;;;;6.30;4.10;;;;;;;19.56;62.62;99430.81;342110;28;1867;-69
2022/06/16 00:16:25;;;;;;;6.60;4.10;;;;;;;19.59;61.92;99428.91;342821;28;1849;-69
2022/06/16 00:16:37;;;;;;;6.40;4.20;;;;;;;19.59;61.43;99428.91;341843;28;1874;-69
2022/06/16 00:16:49;;;;;;;6.90;4.40;;;;;;;19.56;61.16;99436.09;343488;28;1598;-69
2022/06/16 00:17:02;;;;;;;6.05;4.32;;;;;;;19.37;61.81;99430.47;343780;28;1094;-69
2022/06/16 00:17:14;;;;;;;5.20;4.28;;;;;;;19.35;62.09;99427.09;343110;28;1613;-69
2022/06/16 00:17:26;;;;;;;5.25;4.20;;;;;;;19.17;63.96;99429.28;342169;28;1688;-68
2022/06/16 00:17:41;;;;;;;5.40;4.03;;;;;;;19.13;64.29;99438.34;341694;28;1944;-69
2022/06/16 00:17:53;;;;;;;5.68;4.15;;;;;;;19.11;64.28;99430.56;343095;28;2232;-69
2022/06/16 00:18:05;;;;;;;6.25;4.10;;;;;;;19.18;63.98;99424.88;343618;28;1254;-69
2022/06/16 00:18:17;;;;;;;5.05;3.92;;;;;;;19.24;63.70;99427.91;342585;28;1815;-68
2022/06/16 00:18:30;;;;;;;4.63;4.00;;;;;;;19.28;63.79;99425.88;340855;28;1973;-68
2022/06/16 00:18:42;;;;;;;4.30;3.90;;;;;;;19.34;63.69;99430.72;341225;28;1696;-68
2022/06/16 00:18:54;;;;;;;4.63;4.10;;;;;;;19.38;63.76;99423.41;341462;28;1917;-67
2022/06/16 00:19:06;;;;;;;4.63;4.13;;;;;;;19.41;63.30;99426.66;341660;28;2040;-67
2022/06/16 00:19:18;;;;;;;5.82;4.10;;;;;;;19.43;63.31;99430.03;342099;28;1906;-66
2022/06/16 00:19:31;;;;;;;6.03;3.83;;;;;;;19.46;63.29;99428.97;342214;28;1877;-66
2022/06/16 00:19:43;;;;;;;7.47;3.80;;;;;;;19.48;63.19;99427.91;342953;28;2132;-67
2022/06/16 00:19:55;;;;;;;7.00;3.95;;;;;;;19.51;62.96;99422.41;343042;28;1833;-66
2022/06/16 00:20:08;;;;;;;5.53;3.90;;;;;;;19.54;63.06;99421.34;343032;28;1692;-66
2022/06/16 00:20:20;;;;;;;4.75;4.00;;;;;;;19.56;62.97;99430.81;342755;28;2196;-66
2022/06/16 00:20:32;;;;;;;4.90;3.90;;;;;;;19.60;62.79;99430.59;342644;28;1589;-67
2022/06/16 00:20:44;;;;;;;4.93;3.90;;;;;;;19.62;62.75;99423.41;343732;28;1777;-66
2022/06/16 00:20:56;;;;;;;4.22;3.78;;;;;;;19.65;63.19;99431.09;343681;28;1218;-67
2022/06/16 00:21:09;;;;;;;4.38;3.80;;;;;;;19.67;63.43;99426.56;343676;28;1044;-66
2022/06/16 00:21:21;;;;;;;6.43;3.92;;;;;;;19.68;63.77;99428.22;342503;28;1669;-67
2022/06/16 00:21:33;;;;;;;6.75;4.00;;;;;;;19.69;63.40;99424.66;342849;28;1535;-66
2022/06/16 00:21:45;;;;;;;6.45;4.03;;;;;;;19.70;63.41;99421.06;343036;28;1951;-67
2022/06/16 00:21:57;;;;;;;5.78;3.97;;;;;;;19.70;63.28;99424.53;343516;28;1898;-67
2022/06/16 00:22:09;;;;;;;7.82;3.80;;;;;;;19.72;62.97;99430.56;343861;28;1096;-67
2022/06/16 00:22:22;;;;;;;7.80;3.80;;;;;;;19.74;62.58;99423.38;343005;28;1808;-67
2022/06/16 00:22:35;;;;;;;5.55;3.75;;;;;;;19.76;62.53;99423.28;342199;28;1769;-67
2022/06/16 00:22:48;;;;;;;4.80;3.70;;;;;;;19.76;62.47;99425.91;342897;28;2170;-67
2022/06/16 00:23:00;;;;;;;4.22;3.60;;;;;;;19.79;62.58;99419.56;343810;28;1133;-67
2022/06/16 00:23:12;;;;;;;4.80;3.70;;;;;;;19.80;62.08;99427.38;343228;28;1885;-67
2022/06/16 00:23:24;;;;;;;4.50;3.70;;;;;;;19.80;61.95;99416.81;342391;28;1847;-67
2022/06/16 00:23:36;;;;;;;4.22;3.60;;;;;;;19.82;61.86;99430.72;341771;28;1845;-68
2022/06/16 00:23:49;;;;;;;4.57;3.63;;;;;;;19.83;61.56;99426.28;343733;28;1583;-68
2022/06/16 00:24:01;;;;;;;4.80;3.63;;;;;;;19.83;61.71;99427.13;343822;28;1107;-67
2022/06/16 00:24:13;;;;;;;5.18;3.50;;;;;;;19.83;61.60;99426.28;343600;28;1174;-67
2022/06/16 00:24:27;;;;;;;4.97;3.50;;;;;;;19.84;61.57;99425.31;342804;28;1316;-67
2022/06/16 00:24:39;;;;;;;5.75;3.60;;;;;;;19.84;61.49;99418.28;342695;28;2792;-67
2022/06/16 00:24:51;;;;;;;6.05;3.63;;;;;;;19.86;61.25;99420.78;342239;28;1248;-67
2022/06/16 00:25:05;;;;;;;5.32;3.50;;;;;;;19.85;61.36;99424.38;342379;28;1611;-67
2022/06/16 00:25:18;;;;;;;4.50;3.60;;;;;;;19.84;61.17;99415.63;342739;28;1374;-67
2022/06/16 00:25:32;;;;;;;4.10;3.70;;;;;;;19.86;61.13;99421.63;342971;28;1378;-67
2022/06/16 00:25:44;;;;;;;4.13;3.60;;;;;;;19.86;60.95;99421.63;343456;28;1353;-67
2022/06/16 00:25:56;;;;;;;4.72;3.50;;;;;;;19.85;60.70;99417.28;342273;28;1036;-67
2022/06/16 00:26:18;;;;;;;4.65;3.80;;;;;;;19.81;61.29;99426.41;342290;28;1336;-67
2022/06/16 00:26:30;;;;;;;4.95;4.15;;;;;;;19.81;61.56;99423.75;343045;28;1552;-67
2022/06/16 00:26:45;;;;;;;5.20;4.10;;;;;;;19.81;62.12;99422.94;343679;28;1159;-67
2022/06/16 00:26:57;;;;;;;4.20;3.80;;;;;;;19.81;62.23;99422.94;343255;28;1687;-67
2022/06/16 00:27:09;;;;;;;4.30;3.83;;;;;;;19.80;62.25;99414.19;343785;28;1254;-67
2022/06/16 00:27:21;;;;;;;5.10;3.90;;;;;;;19.80;62.47;99422.09;343801;28;1066;-68
2022/06/16 00:27:34;;;;;;;5.30;4.07;;;;;;;19.79;62.29;99420.41;343723;28;1648;-68
2022/06/16 00:27:46;;;;;;;5.13;4.03;;;;;;;19.81;62.20;99418.47;343823;28;1221;-67
2022/06/16 00:27:58;;;;;;;4.60;4.00;;;;;;;19.78;62.41;99418.72;343717;28;1611;-67
2022/06/16 00:28:10;;;;;;;4.60;4.05;;;;;;;19.77;62.34;99422.31;342983;28;1811;-67
2022/06/16 00:28:23;;;;;;;4.82;4.10;;;;;;;19.77;62.64;99421.47;343642;28;2016;-67
2022/06/16 00:28:35;;;;;;;4.93;3.90;;;;;;;19.74;63.17;99420.75;342656;28;2182;-67
2022/06/16 00:28:47;;;;;;;4.50;4.10;;;;;;;19.75;62.88;99425.06;343030;28;1986;-67
2022/06/16 00:28:59;;;;;;;4.43;4.03;;;;;;;19.77;62.90;99417.03;343115;28;2269;-67
2022/06/16 00:29:13;;;;;;;4.32;3.75;;;;;;;19.77;62.39;99419.66;343588;28;1569;-67
2022/06/16 00:29:25;;;;;;;4.05;3.60;;;;;;;19.79;62.28;99416.91;343153;28;1737;-67
2022/06/16 00:29:37;;;;;;;4.00;3.63;;;;;;;19.80;62.21;99418.59;343777;28;2105;-67
2022/06/16 00:29:49;;;;;;;4.38;3.90;;;;;;;19.80;62.13;99427.38;343767;28;1256;-67
2022/06/16 00:30:03;;;;;;;5.85;4.10;;;;;;;19.83;61.99;99426.28;343046;28;1832;-68
2022/06/16 00:30:14;;;;;;;5.35;4.20;;;;;;;19.83;61.68;99421.84;343222;28;1126;-67
2022/06/16 00:30:26;;;;;;;4.70;4.18;;;;;;;19.83;61.81;99416.56;343866;28;1372;-67
2022/06/16 00:30:39;;;;;;;5.07;4.03;;;;;;;19.84;61.98;99422.69;342966;28;1829;-66
2022/06/16 00:30:51;;;;;;;4.35;3.92;;;;;;;19.84;61.85;99418.28;341910;28;2100;-67
2022/06/16 00:31:05;;;;;;;4.55;3.90;;;;;;;19.84;61.77;99418.28;342095;28;2008;-67
2022/06/16 00:31:21;;;;;;;4.85;3.83;;;;;;;19.85;61.84;99425.22;343291;28;1544;-67
2022/06/16 00:31:34;;;;;;;6.68;3.80;;;;;;;19.85;61.49;99419.94;343162;28;1313;-67
2022/06/16 00:31:46;;;;;;;6.97;3.80;;;;;;;19.84;61.18;99420.91;343190;28;1835;-67
2022/06/16 00:31:58;;;;;;;5.88;3.72;;;;;;;19.86;61.36;99421.63;342017;28;1048;-67
2022/06/16 00:32:10;;;;;;;5.30;3.83;;;;;;;19.86;61.57;99416.34;342370;28;1834;-67
2022/06/16 00:32:23;;;;;;;5.20;3.88;;;;;;;19.86;61.28;99421.63;341749;28;1829;-67
2022/06/16 00:32:41;;;;;;;7.78;4.32;;;;;;;19.85;61.05;99414.66;341903;28;1796;-67
2022/06/16 00:32:53;;;;;;;8.10;4.20;;;;;;;19.86;60.85;99420.78;342607;28;1825;-68
2022/06/16 00:33:05;;;;;;;5.35;3.60;;;;;;;19.86;61.21;99426.03;343588;28;1034;-67
2022/06/16 00:33:17;;;;;;;4.65;3.50;;;;;;;19.85;62.09;99419.94;342293;28;1819;-67
2022/06/16 00:33:31;;;;;;;5.95;3.70;;;;;;;19.84;62.39;99428.81;343062;28;1731;-67
2022/06/16 00:33:43;;;;;;;6.88;3.88;;;;;;;19.85;61.89;99419.09;343156;28;1831;-67
2022/06/16 00:33:56;;;;;;;5.72;3.60;;;;;;;19.84;62.07;99423.53;343535;28;1194;-67
2022/06/16 00:34:08;;;;;;;4.80;3.63;;;;;;;19.83;62.81;99421.00;343375;28;1832;-67
2022/06/16 00:34:20;;;;;;;4.40;3.90;;;;;;;19.81;62.39;99418.47;343250;28;1890;-67
2022/06/16 00:34:32;;;;;;;4.40;4.00;;;;;;;19.82;62.31;99420.19;342012;28;1891;-67
2022/06/16 00:34:44;;;;;;;4.32;3.90;;;;;;;19.81;62.31;99420.28;343178;28;2479;-67
2022/06/16 00:34:57;;;;;;;5.55;3.83;;;;;;;19.81;62.43;99422.94;342733;28;1835;-67
2022/06/16 00:35:11;;;;;;;6.13;3.78;;;;;;;19.82;62.47;99420.19;343682;28;1245;-67
2022/06/16 00:35:23;;;;;;;5.40;4.00;;;;;;;19.81;62.57;99413.22;342101;28;1732;-68
2022/06/16 00:35:35;;;;;;;5.68;4.18;;;;;;;19.83;62.44;99416.56;343235;28;1480;-68
2022/06/16 00:35:47;;;;;;;6.07;4.20;;;;;;;19.85;62.34;99419.09;343597;28;1107;-67
2022/06/16 00:35:59;;;;;;;7.05;4.20;;;;;;;19.84;62.35;99415.63;343593;28;1095;-67
2022/06/16 00:36:15;;;;;;;6.22;4.00;;;;;;;19.85;62.24;99414.66;340594;29;2016;-67
2022/06/16 00:36:27;;;;;;;4.90;3.88;;;;;;;19.86;62.40;99420.78;341236;28;1211;-67
2022/06/16 00:36:39;;;;;;;6.07;4.10;;;;;;;19.86;62.18;99419.00;341938;28;1245;-68
2022/06/16 00:36:52;;;;;;;5.55;4.00;;;;;;;19.87;62.17;99411.91;343123;28;1070;-68
2022/06/16 00:37:04;;;;;;;6.18;3.92;;;;;;;19.86;62.63;99421.63;343378;28;1055;-67
2022/06/16 00:37:16;;;;;;;6.65;4.15;;;;;;;19.84;62.76;99418.28;342126;28;1180;-67
2022/06/16 00:37:28;;;;;;;6.15;4.22;;;;;;;19.83;62.71;99416.56;341853;28;1995;-67
2022/06/16 00:37:40;;;;;;;5.55;4.30;;;;;;;19.85;62.23;99424.38;342663;28;1815;-67
2022/06/16 00:37:52;;;;;;;5.40;4.20;;;;;;;19.85;62.40;99419.94;342897;28;1810;-67
2022/06/16 00:38:04;;;;;;;5.22;3.80;;;;;;;19.84;62.42;99418.28;343511;28;1187;-68
2022/06/16 00:38:16;;;;;;;4.35;3.70;;;;;;;19.85;62.32;99419.09;342112;28;1906;-68
2022/06/16 00:38:28;;;;;;;3.97;3.67;;;;;;;19.85;62.05;99414.66;342102;28;2077;-67
2022/06/16 00:38:41;;;;;;;4.20;3.80;;;;;;;19.86;61.90;99410.22;342075;28;2145;-67
2022/06/16 00:38:53;;;;;;;4.30;3.90;;;;;;;19.88;61.73;99418.84;343512;28;1624;-68
2022/06/16 00:39:05;;;;;;;4.70;4.00;;;;;;;19.88;61.90;99417.09;343834;28;1327;-67
2022/06/16 00:39:17;;;;;;;5.35;4.10;;;;;;;19.88;61.58;99419.72;342344;28;1862;-68
2022/06/16 00:39:29;;;;;;;5.45;4.05;;;;;;;19.89;61.86;99416.09;342380;28;1661;-68
2022/06/16 00:39:41;;;;;;;5.57;4.05;;;;;;;19.89;61.85;99418.75;342661;28;1668;-67
2022/06/16 00:39:53;;;;;;;5.75;3.85;;;;;;;19.89;62.26;99421.38;343197;28;1895;-67
2022/06/16 00:40:06;;;;;;;5.07;3.80;;;;;;;19.90;62.39;99417.81;343083;28;1758;-67
2022/06/16 00:40:18;;;;;;;4.68;3.70;;;;;;;19.92;62.33;99417.66;343398;28;1015;-67
2022/06/16 00:40:30;;;;;;;5.15;3.85;;;;;;;19.92;62.08;99415.91;343561;28;1138;-67
2022/06/16 00:40:42;;;;;;;5.32;4.00;;;;;;;19.91;62.10;99416.84;343811;28;1701;-67
2022/06/16 00:40:54;;;;;;;5.75;4.18;;;;;;;19.90;62.09;99420.44;343474;28;2073;-67
2022/06/16 00:41:07;;;;;;;4.63;4.10;;;;;;;19.90;62.54;99417.81;343971;28;1791;-67
2022/06/16 00:41:19;;;;;;;4.63;4.03;;;;;;;19.89;62.55;99415.28;342356;28;1792;-68
2022/06/16 00:41:31;;;;;;;4.82;4.05;;;;;;;19.88;62.49;99422.34;342222;28;1812;-67
2022/06/16 00:41:44;;;;;;;6.13;4.07;;;;;;;19.88;62.42;99425.00;342190;28;1859;-67
2022/06/16 00:41:56;;;;;;;5.45;4.10;;;;;;;19.88;62.29;99414.44;343026;28;1906;-67
2022/06/16 00:42:15;;;;;;;6.32;4.10;;;;;;;19.89;62.12;99418.75;343600;28;1246;-67
2022/06/16 00:42:27;;;;;;;5.25;3.92;;;;;;;19.89;62.11;99426.66;341849;28;1825;-67
2022/06/16 00:42:39;;;;;;;5.25;3.75;;;;;;;19.89;61.84;99421.38;342137;28;1908;-67
2022/06/16 00:42:51;;;;;;;5.10;3.70;;;;;;;19.90;61.72;99423.09;343361;28;1944;-67
2022/06/16 00:43:09;;;;;;;6.15;3.75;;;;;;;19.90;61.98;99422.22;343857;28;1201;-67
2022/06/16 00:43:21;;;;;;;6.60;3.90;;;;;;;19.92;61.75;99421.16;342659;28;1861;-67
2022/06/16 00:43:34;;;;;;;4.93;3.75;;;;;;;19.92;61.53;99415.91;342598;28;1559;-67
2022/06/16 00:43:46;;;;;;;3.80;3.30;;;;;;;19.93;61.54;99422.84;342757;28;2216;-67
2022/06/16 00:44:12;;;;;;;4.07;3.67;;;;;;;19.94;61.69;99423.66;342764;28;1932;-67
2022/06/16 00:44:30;;;;;;;5.00;3.83;;;;;;;19.95;61.63;99422.72;341751;28;1818;-67
2022/06/16 00:44:50;;;;;;;5.55;3.70;;;;;;;19.97;61.40;99422.63;342628;28;1824;-67
2022/06/16 00:45:03;;;;;;;4.82;3.78;;;;;;;19.98;61.10;99429.56;343077;28;1788;-67
2022/06/16 00:45:46;;;;;;;4.28;3.80;;;;;;;19.95;61.51;99423.56;343233;28;1777;-67
2022/06/16 00:46:05;;;;;;;4.37;3.70;;;;;;;19.94;60.97;99424.53;343942;28;2231;-67
2022/06/16 00:46:19;;;;;;;3.75;3.45;;;;;;;19.94;61.13;99421.91;343012;28;1908;-67
2022/06/16 00:46:32;;;;;;;3.88;3.47;;;;;;;19.94;60.98;99424.53;343024;28;1853;-67
2022/06/16 00:46:44;;;;;;;4.70;3.43;;;;;;;19.94;61.11;99428.94;342662;28;1654;-68
2022/06/16 00:46:56;;;;;;;4.97;3.60;;;;;;;19.92;61.68;99421.16;343693;28;1378;-67
2022/06/16 00:47:10;;;;;;;6.03;3.63;;;;;;;19.91;61.94;99424.75;343687;28;1455;-67
2022/06/16 00:47:26;;;;;;;4.28;3.50;;;;;;;19.91;61.63;99427.38;342545;28;1682;-67
2022/06/16 00:47:38;;;;;;;3.75;3.45;;;;;;;19.91;61.36;99424.75;342546;28;1635;-67
2022/06/16 00:47:50;;;;;;;4.30;3.60;;;;;;;19.90;61.28;99423.09;343425;28;1702;-67
2022/06/16 00:48:02;;;;;;;4.03;3.42;;;;;;;19.88;61.27;99414.44;343803;28;1058;-67
2022/06/16 00:48:20;;;;;;;4.50;3.95;;;;;;;19.87;61.87;99415.38;343817;28;1030;-67
2022/06/16 00:48:47;;;;;;;4.80;4.30;;;;;;;19.84;62.03;99413.00;342111;28;1653;-67
2022/06/16 00:49:05;;;;;;;4.93;3.97;;;;;;;19.83;62.25;99413.94;342414;28;1280;-66
2022/06/16 00:49:17;;;;;;;4.38;4.03;;;;;;;19.83;62.30;99410.47;342846;28;1906;-67
2022/06/16 00:49:30;;;;;;;4.38;3.97;;;;;;;19.81;62.12;99413.22;342785;28;2019;-67
2022/06/16 00:49:44;;;;;;;4.40;4.00;;;;;;;19.81;62.13;99412.38;342813;28;1688;-67
2022/06/16 00:50:03;;;;;;;4.20;3.80;;;;;;;19.82;62.25;99412.28;343564;28;1096;-67
2022/06/16 00:50:15;;;;;;;5.40;3.80;;;;;;;19.84;62.38;99412.13;342986;28;1836;-67
2022/06/16 00:50:28;;;;;;;5.25;3.78;;;;;;;19.84;62.21;99413.00;343272;28;1650;-67
2022/06/16 00:50:42;;;;;;;4.20;3.80;;;;;;;19.84;62.55;99413.00;343282;28;1727;-67
2022/06/16 00:51:36;;;;;;;5.30;3.85;;;;;;;19.84;61.83;99407.72;343061;28;2032;-67
2022/06/16 00:51:52;;;;;;;7.30;4.22;;;;;;;19.83;62.02;99406.03;343949;28;2846;-67
2022/06/16 00:52:14;;;;;;;6.43;4.15;;;;;;;19.83;62.24;99407.81;343390;28;1226;-67
2022/06/16 00:52:32;;;;;;;6.28;4.03;;;;;;;19.82;62.53;99412.28;342694;28;1807;-67
2022/06/16 00:52:44;;;;;;;5.50;3.80;;;;;;;19.83;62.42;99410.47;342905;28;2002;-67
2022/06/16 00:52:56;;;;;;;4.82;4.00;;;;;;;19.81;62.56;99407.94;343702;28;1233;-67
2022/06/16 00:53:08;;;;;;;4.95;4.10;;;;;;;19.83;62.40;99405.19;343644;28;1711;-68
2022/06/16 00:53:21;;;;;;;4.88;4.30;;;;;;;19.83;62.48;99406.03;342336;28;1858;-67
2022/06/16 00:53:34;;;;;;;5.70;4.30;;;;;;;19.83;62.48;99410.47;342448;28;1617;-67
2022/06/16 00:53:47;;;;;;;5.03;4.13;;;;;;;19.81;62.76;99410.56;343738;28;1775;-67
2022/06/16 00:54:11;;;;;;;4.65;4.13;;;;;;;19.81;62.52;99407.94;342578;28;1180;-67
2022/06/16 00:54:30;;;;;;;5.95;4.32;;;;;;;19.80;62.31;99406.25;342299;28;1714;-67
2022/06/16 00:54:51;;;;;;;6.57;4.30;;;;;;;19.78;62.66;99413.47;343283;28;1592;-67
2022/06/16 00:55:10;;;;;;;6.70;4.30;;;;;;;19.78;62.51;99413.47;342563;28;1070;-67
2022/06/16 00:55:22;;;;;;;4.80;4.32;;;;;;;19.78;62.73;99413.47;342848;28;1626;-67
2022/06/16 00:55:34;;;;;;;5.03;4.13;;;;;;;19.77;62.60;99410.91;342988;28;1674;-67
2022/06/16 00:55:48;;;;;;;5.18;4.00;;;;;;;19.77;62.53;99414.41;343879;28;1784;-67
2022/06/16 00:56:00;;;;;;;5.32;3.90;;;;;;;19.77;62.45;99411.75;343101;28;1870;-67
2022/06/16 00:56:18;;;;;;;6.47;4.18;;;;;;;19.77;62.54;99414.41;343764;28;1650;-67
2022/06/16 00:56:31;;;;;;;5.85;4.20;;;;;;;19.76;62.72;99418.00;342874;28;1622;-67
2022/06/16 00:56:43;;;;;;;4.70;4.00;;;;;;;19.76;62.33;99415.38;343325;28;1733;-67
2022/06/16 00:57:01;;;;;;;4.70;3.92;;;;;;;19.78;62.11;99410.81;343839;28;1901;-67
2022/06/16 00:57:18;;;;;;;5.68;4.00;;;;;;;19.79;62.59;99412.47;343649;28;1903;-68
2022/06/16 00:57:43;;;;;;;5.13;3.90;;;;;;;19.78;62.57;99408.19;342841;28;1665;-68
2022/06/16 00:57:55;;;;;;;5.63;4.20;;;;;;;19.78;62.36;99418.72;342344;28;1874;-67
2022/06/16 00:58:09;;;;;;;6.20;4.13;;;;;;;19.79;62.40;99409.84;343806;28;1071;-67
2022/06/16 00:58:22;;;;;;;4.95;4.20;;;;;;;19.78;62.55;99413.47;342458;28;1790;-66
2022/06/16 00:58:38;;;;;;;5.60;4.30;;;;;;;19.79;62.89;99415.13;342389;28;1571;-67
2022/06/16 00:58:54;;;;;;;5.65;4.30;;;;;;;19.79;63.07;99409.84;342778;28;1700;-67
2022/06/16 00:59:07;;;;;;;5.03;4.30;;;;;;;19.77;62.70;99406.47;343692;28;1173;-67
2022/06/16 00:59:21;;;;;;;5.22;4.32;;;;;;;19.79;62.56;99412.47;342884;28;2097;-67
2022/06/16 00:59:33;;;;;;;5.95;4.30;;;;;;;19.79;62.82;99415.13;341712;28;2557;-67
2022/06/16 00:59:45;;;;;;;6.63;4.30;;;;;;;19.79;62.81;99419.56;342407;28;2304;-67
2022/06/16 01:00:15;;;;;;;5.43;4.40;;;;;;;19.79;62.90;99414.28;343053;28;1871;-67
2022/06/16 01:01:04;;;;;;;4.70;4.00;;;;;;;19.78;62.67;99412.59;341985;28;1444;-67
2022/06/16 01:01:21;;;;;;;4.60;4.00;;;;;;;19.78;62.61;99413.47;345545;28;1056;-67
2022/06/16 01:01:40;;;;;;;4.65;4.20;;;;;;;19.75;62.80;99413.66;345344;28;1448;-67
2022/06/16 01:01:52;;;;;;;4.82;4.35;;;;;;;19.74;62.26;99414.63;344404;28;1591;-66
2022/06/16 01:02:05;;;;;;;5.40;4.30;;;;;;;19.72;62.36;99411.28;344974;28;1701;-67
2022/06/16 01:02:18;;;;;;;5.55;4.25;;;;;;;19.74;62.66;99412.00;344347;28;1761;-67
2022/06/16 01:02:30;;;;;;;5.55;4.20;;;;;;;19.73;62.80;99412.94;343979;28;2012;-66
2022/06/16 01:02:42;;;;;;;5.95;4.50;;;;;;;19.72;62.89;99413.91;344253;28;1637;-66
2022/06/16 01:02:54;;;;;;;5.72;4.60;;;;;;;19.71;62.76;99412.22;345007;28;1047;-67
2022/06/16 01:03:06;;;;;;;5.13;4.53;;;;;;;19.73;62.46;99410.31;344729;28;1263;-67
2022/06/16 01:04:52;;;;;;;6.28;4.53;;;;;;;19.78;61.63;99413.47;343435;28;1966;-67
2022/06/16 01:05:04;;;;;;;5.63;4.30;;;;;;;19.78;61.42;99418.72;344118;28;2014;-68
2022/06/16 01:05:16;;;;;;;4.75;4.15;;;;;;;19.79;61.56;99412.47;343725;28;2289;-68
2022/06/16 01:05:28;;;;;;;5.28;4.10;;;;;;;19.77;61.60;99406.47;343906;28;1762;-67
2022/06/16 01:05:42;;;;;;;5.95;4.45;;;;;;;19.78;61.79;99418.72;344031;28;1693;-67
2022/06/16 01:05:54;;;;;;;6.70;4.40;;;;;;;19.77;61.96;99417.03;344403;28;1847;-67
2022/06/16 01:06:24;;;;;;;6.25;3.95;;;;;;;19.74;61.95;99412.00;343459;28;1782;-68
2022/06/16 01:06:37;;;;;;;9.38;4.40;;;;;;;19.76;61.63;99412.72;343033;28;1727;-67
2022/06/16 01:06:49;;;;;;;8.70;4.30;;;;;;;19.76;61.78;99418.00;344023;28;1921;-67
2022/06/16 01:07:06;;;;;;;6.95;4.10;;;;;;;19.76;61.74;99412.72;346198;28;1074;-67
2022/06/16 01:07:25;;;;;;;5.30;3.95;;;;;;;19.77;61.90;99406.47;343197;28;1670;-67
2022/06/16 01:07:41;;;;;;;4.95;4.00;;;;;;;19.78;62.11;99413.47;343080;28;2076;-67
2022/06/16 01:07:56;;;;;;;4.65;4.10;;;;;;;19.77;62.29;99406.47;344340;28;1863;-67
2022/06/16 01:08:08;;;;;;;4.53;4.05;;;;;;;19.75;62.08;99413.66;345146;28;1178;-67
2022/06/16 01:08:20;;;;;;;5.25;4.15;;;;;;;19.75;62.42;99408.38;343576;28;1536;-67
2022/06/16 01:08:32;;;;;;;5.88;4.55;;;;;;;19.76;62.55;99412.72;344137;28;1922;-66